Time;durP1;ratioP1;P1;durP2;ratioP2;P2;SDS_P1;SDS_P2;PMS_P1;PMS_P2;Temp;Humidity;BMP_temperature;BMP_pressure;BME280_temperature;BME280_humidity;BME280_pressure;Samples;Min_cycle;Max_cycle;Signal;HPM_P1;HPM_P2
2020/12/17 00:00:11;;;;;;;25.75;19.88;;;5.70;1.00;;;;;;4987548;28;20306;-76
2020/12/17 00:02:38;;;;;;;29.30;20.20;;;5.70;1.00;;;;;;4969358;28;20302;-76
2020/12/17 00:05:04;;;;;;;30.50;22.15;;;5.70;1.00;;;;;;4977045;28;20787;-76
2020/12/17 00:07:31;;;;;;;26.08;20.73;;;5.70;1.00;;;;;;4961813;28;21013;-76
2020/12/17 00:09:57;;;;;;;30.75;21.52;;;5.70;1.00;;;;;;4978076;28;20268;-76
2020/12/17 00:12:24;;;;;;;26.70;20.20;;;5.80;1.00;;;;;;4966083;28;20302;-75
2020/12/17 00:14:50;;;;;;;24.77;18.40;;;5.70;1.00;;;;;;4976422;28;20318;-76
2020/12/17 00:17:19;;;;;;;24.80;17.83;;;5.70;1.00;;;;;;4963611;28;20307;-75
2020/12/17 00:19:45;;;;;;;25.70;20.17;;;5.60;1.00;;;;;;4975878;28;20282;-75
2020/12/17 00:22:11;;;;;;;28.85;19.15;;;5.60;1.00;;;;;;4980420;28;20239;-75
2020/12/17 00:24:38;;;;;;;29.85;20.17;;;5.60;1.00;;;;;;4963838;28;20537;-76
2020/12/17 00:27:05;;;;;;;24.60;19.50;;;5.60;1.00;;;;;;4983528;28;20234;-76
2020/12/17 00:29:31;;;;;;;29.13;20.02;;;5.50;1.00;;;;;;4972213;28;20298;-75
2020/12/17 00:31:57;;;;;;;27.65;19.05;;;5.60;1.00;;;;;;4981235;28;20315;-75
2020/12/17 00:34:23;;;;;;;26.45;20.42;;;5.60;1.00;;;;;;4969376;28;20230;-75
2020/12/17 00:36:52;;;;;;;26.17;20.08;;;5.50;1.00;;;;;;4982174;28;20250;-75
2020/12/17 00:39:19;;;;;;;25.73;18.90;;;5.50;1.00;;;;;;4966288;28;20318;-74
2020/12/17 00:41:46;;;;;;;26.60;19.05;;;5.50;1.00;;;;;;4980415;28;20231;-75
2020/12/17 00:44:13;;;;;;;25.80;20.00;;;5.50;1.00;;;;;;4967335;28;20298;-75
2020/12/17 00:46:39;;;;;;;24.52;19.00;;;5.50;1.00;;;;;;4975234;28;20243;-74
2020/12/17 00:49:05;;;;;;;27.75;20.17;;;5.50;1.00;;;;;;4983606;28;20768;-77
2020/12/17 00:51:31;;;;;;;26.13;18.60;;;5.50;1.00;;;;;;4995696;28;20235;-75
2020/12/17 00:53:58;;;;;;;24.13;19.08;;;5.50;1.00;;;;;;4967303;28;20342;-75
2020/12/17 00:56:24;;;;;;;27.60;20.60;;;5.50;1.00;;;;;;4985336;28;20219;-75
2020/12/17 00:58:51;;;;;;;24.05;17.55;;;5.60;1.00;;;;;;4970566;28;20231;-75
2020/12/17 01:01:17;;;;;;;24.92;17.52;;;5.60;1.00;;;;;;4980815;28;20227;-76
2020/12/17 01:03:43;;;;;;;24.38;17.63;;;5.60;1.00;;;;;;4978370;28;20239;-76
2020/12/17 01:06:09;;;;;;;24.05;17.67;;;5.60;1.00;;;;;;4967997;28;21117;-75
2020/12/17 01:08:36;;;;;;;21.95;16.85;;;5.60;1.00;;;;;;4985754;28;20278;-77
2020/12/17 01:11:03;;;;;;;24.17;18.75;;;5.60;1.00;;;;;;4963393;28;20254;-75
2020/12/17 01:13:29;;;;;;;25.35;17.65;;;5.60;1.00;;;;;;4979969;28;20308;-75
2020/12/17 01:15:56;;;;;;;26.52;18.90;;;5.60;1.00;;;;;;4956293;28;20220;-75
2020/12/17 01:18:23;;;;;;;21.50;17.45;;;5.60;1.00;;;;;;4979243;28;20243;-75
2020/12/17 01:20:49;;;;;;;21.25;16.90;;;5.60;1.00;;;;;;4957204;28;20266;-75
2020/12/17 01:23:15;;;;;;;22.23;17.10;;;5.60;1.00;;;;;;4981603;28;20238;-75
2020/12/17 01:25:41;;;;;;;25.60;19.95;;;5.60;1.00;;;;;;4962813;28;20251;-75
2020/12/17 01:28:13;;;;;;;23.30;16.92;;;5.60;1.00;;;;;;4980269;28;20228;-75
2020/12/17 01:30:40;;;;;;;21.88;16.63;;;5.60;1.00;;;;;;4956826;28;20236;-76
2020/12/17 01:33:07;;;;;;;23.45;16.83;;;5.50;1.00;;;;;;4983130;28;20227;-75
2020/12/17 01:35:34;;;;;;;23.23;18.05;;;5.50;1.00;;;;;;4960473;28;20968;-76
2020/12/17 01:38:00;;;;;;;22.58;17.48;;;5.50;1.00;;;;;;4977732;28;20307;-75
2020/12/17 01:40:28;;;;;;;21.63;17.13;;;5.60;1.00;;;;;;4966606;28;20231;-76
2020/12/17 01:42:55;;;;;;;27.10;19.70;;;5.60;1.00;;;;;;4979217;28;20227;-75
2020/12/17 01:45:21;;;;;;;23.00;17.88;;;5.60;1.00;;;;;;4980615;28;20275;-76
2020/12/17 01:47:48;;;;;;;23.83;17.70;;;5.50;1.00;;;;;;4961791;28;20232;-75
2020/12/17 01:50:15;;;;;;;23.20;17.08;;;5.60;1.00;;;;;;4981766;28;20228;-76
2020/12/17 01:52:41;;;;;;;24.88;17.98;;;5.60;1.00;;;;;;4955552;28;20714;-75
2020/12/17 01:55:08;;;;;;;23.70;18.58;;;5.60;1.00;;;;;;4979682;28;20224;-75
2020/12/17 01:57:35;;;;;;;24.15;17.80;;;5.60;1.00;;;;;;4964639;28;20303;-75
2020/12/17 02:00:06;;;;;;;22.35;17.90;;;5.60;1.00;;;;;;4976361;28;21218;-76
2020/12/17 02:02:33;;;;;;;24.52;18.35;;;5.60;1.00;;;;;;4957021;28;20239;-75
2020/12/17 02:05:00;;;;;;;23.20;17.58;;;5.50;1.00;;;;;;4979582;28;20421;-74
2020/12/17 02:07:28;;;;;;;23.92;17.55;;;5.50;1.00;;;;;;4966812;28;20351;-75
2020/12/17 02:09:58;;;;;;;24.20;18.15;;;5.50;1.00;;;;;;4977156;28;20688;-75
2020/12/17 02:12:40;;;;;;;24.77;17.65;;;5.50;1.00;;;;;;4956554;28;20278;-75
2020/12/17 02:15:06;;;;;;;22.85;17.27;;;5.40;1.00;;;;;;4978577;28;20283;-75
2020/12/17 02:17:33;;;;;;;24.77;20.00;;;5.40;1.00;;;;;;4961325;28;20215;-75
2020/12/17 02:20:00;;;;;;;25.00;19.55;;;5.30;1.00;;;;;;4979145;28;20285;-75
2020/12/17 02:22:27;;;;;;;24.50;18.02;;;5.20;1.00;;;;;;4962362;28;21115;-75
2020/12/17 02:24:54;;;;;;;23.90;18.95;;;5.10;1.00;;;;;;4982493;28;20230;-75
2020/12/17 02:27:20;;;;;;;25.67;18.92;;;5.10;1.00;;;;;;4959909;28;20224;-75
2020/12/17 02:29:46;;;;;;;28.80;18.80;;;5.00;1.00;;;;;;4977430;28;20236;-76
2020/12/17 02:32:13;;;;;;;24.13;18.08;;;5.00;1.00;;;;;;4976934;28;20702;-75
2020/12/17 02:34:39;;;;;;;27.27;20.05;;;5.00;1.00;;;;;;4963103;28;20226;-76
2020/12/17 02:37:05;;;;;;;26.75;18.17;;;4.90;1.00;;;;;;4979872;28;20232;-75
2020/12/17 02:39:33;;;;;;;25.42;19.20;;;4.90;1.00;;;;;;4961634;28;20317;-76
2020/12/17 02:42:00;;;;;;;26.58;19.15;;;4.90;1.00;;;;;;4979583;28;20228;-75
2020/12/17 02:44:27;;;;;;;26.88;19.20;;;4.80;1.00;;;;;;4960508;28;20684;-76
2020/12/17 02:46:53;;;;;;;23.77;18.75;;;4.80;1.00;;;;;;4976446;28;20303;-75
2020/12/17 02:49:22;;;;;;;27.80;18.95;;;4.80;1.00;;;;;;4958230;28;20236;-75
2020/12/17 02:51:48;;;;;;;26.58;20.13;;;4.70;1.00;;;;;;4988306;28;20299;-75
2020/12/17 02:54:14;;;;;;;25.35;17.70;;;4.80;1.00;;;;;;4961849;28;20226;-75
2020/12/17 02:56:41;;;;;;;22.60;18.02;;;4.70;1.00;;;;;;4983884;28;20315;-76
2020/12/17 02:59:08;;;;;;;27.23;19.27;;;4.70;1.00;;;;;;4958895;28;20275;-76
2020/12/17 03:01:34;;;;;;;25.15;18.50;;;4.60;1.00;;;;;;4983684;28;21119;-75
2020/12/17 03:04:00;;;;;;;29.15;18.88;;;4.70;1.00;;;;;;4958698;28;21850;-75
2020/12/17 03:06:27;;;;;;;26.98;20.15;;;4.70;1.00;;;;;;4979171;28;20277;-75
2020/12/17 03:08:53;;;;;;;29.23;19.95;;;4.70;1.00;;;;;;4962695;28;20785;-76
2020/12/17 03:11:19;;;;;;;26.40;18.85;;;4.60;1.00;;;;;;4980448;28;20310;-75
2020/12/17 03:13:46;;;;;;;27.30;20.60;;;4.60;1.00;;;;;;4981442;28;20299;-75
2020/12/17 03:16:13;;;;;;;26.30;19.02;;;4.60;1.00;;;;;;4966032;28;20314;-75
2020/12/17 03:18:39;;;;;;;24.73;19.15;;;4.60;1.00;;;;;;4994486;28;20230;-74
2020/12/17 03:21:05;;;;;;;26.75;19.92;;;4.60;1.00;;;;;;4967464;28;20534;-74
2020/12/17 03:23:31;;;;;;;26.13;19.13;;;4.50;1.00;;;;;;4980780;28;20231;-74
2020/12/17 03:25:57;;;;;;;24.60;19.13;;;4.50;1.00;;;;;;4951396;28;20295;-75
2020/12/17 03:28:24;;;;;;;30.10;22.63;;;4.50;1.00;;;;;;4978530;28;20228;-74
2020/12/17 03:30:50;;;;;;;26.73;19.70;;;4.50;1.00;;;;;;4959290;28;20230;-74
2020/12/17 03:33:17;;;;;;;27.20;19.50;;;4.50;1.00;;;;;;4980033;28;20307;-74
2020/12/17 03:35:43;;;;;;;33.08;20.73;;;4.40;1.00;;;;;;4961933;28;20773;-74
2020/12/17 03:38:09;;;;;;;28.23;21.05;;;4.40;1.00;;;;;;4975617;28;20307;-75
2020/12/17 03:40:36;;;;;;;25.55;19.90;;;4.40;1.00;;;;;;4963510;28;20220;-75
2020/12/17 03:43:02;;;;;;;30.15;20.67;;;4.30;1.00;;;;;;4974241;28;20236;-74
2020/12/17 03:45:29;;;;;;;27.40;19.50;;;4.40;1.00;;;;;;4960460;28;20258;-75
2020/12/17 03:47:55;;;;;;;27.42;19.35;;;4.40;1.00;;;;;;4968448;28;20314;-74
2020/12/17 03:50:25;;;;;;;27.45;20.70;;;4.30;1.00;;;;;;4974827;28;20910;-75
2020/12/17 03:52:51;;;;;;;28.15;21.38;;;4.30;1.00;;;;;;4976246;28;20216;-75
2020/12/17 03:55:17;;;;;;;27.85;20.30;;;4.20;1.00;;;;;;4980506;28;20231;-75
2020/12/17 03:57:44;;;;;;;27.25;20.70;;;4.20;1.00;;;;;;4959685;28;20259;-75
2020/12/17 04:00:10;;;;;;;31.83;21.40;;;4.20;1.00;;;;;;4977844;28;20225;-74
2020/12/17 04:02:37;;;;;;;32.55;21.73;;;4.20;1.00;;;;;;4953679;28;20307;-75
2020/12/17 04:05:03;;;;;;;29.17;20.90;;;4.10;1.00;;;;;;4977451;28;20255;-74
2020/12/17 04:07:30;;;;;;;32.33;21.00;;;4.10;1.00;;;;;;4958655;28;20311;-75
2020/12/17 04:09:57;;;;;;;28.73;20.65;;;4.10;1.00;;;;;;4972830;28;20654;-75
2020/12/17 04:12:23;;;;;;;32.58;21.45;;;4.10;1.00;;;;;;4963449;28;20228;-74
2020/12/17 04:14:49;;;;;;;33.95;22.55;;;4.10;1.00;;;;;;4975646;28;20345;-75
2020/12/17 04:17:15;;;;;;;28.83;21.77;;;4.00;1.00;;;;;;4961419;28;20259;-75
2020/12/17 04:19:42;;;;;;;28.10;19.95;;;4.00;1.00;;;;;;4974413;28;20307;-75
2020/12/17 04:22:08;;;;;;;30.15;21.02;;;4.00;1.00;;;;;;4964764;28;20293;-75
2020/12/17 04:24:35;;;;;;;31.70;22.75;;;4.00;1.00;;;;;;4982537;28;20235;-75
2020/12/17 04:27:01;;;;;;;25.90;20.35;;;4.00;1.00;;;;;;4966297;28;20280;-75
2020/12/17 04:29:28;;;;;;;31.60;22.05;;;4.00;1.00;;;;;;4984093;28;20257;-75
2020/12/17 04:31:54;;;;;;;27.33;20.88;;;4.00;1.00;;;;;;4987333;28;20220;-75
2020/12/17 04:34:20;;;;;;;31.77;22.30;;;4.00;1.00;;;;;;4966210;28;21217;-75
2020/12/17 04:36:46;;;;;;;27.80;22.02;;;4.00;1.00;;;;;;4985961;28;20230;-74
2020/12/17 04:39:12;;;;;;;32.22;22.60;;;4.00;1.00;;;;;;4960793;28;20228;-74
2020/12/17 04:41:43;;;;;;;40.47;26.17;;;4.00;1.00;;;;;;4981136;28;20228;-74
2020/12/17 04:44:12;;;;;;;34.47;23.20;;;4.00;1.00;;;;;;4955856;28;20306;-74
2020/12/17 04:46:42;;;;;;;30.35;19.77;;;4.00;1.00;;;;;;4981866;28;21041;-74
2020/12/17 04:49:11;;;;;;;32.10;23.63;;;4.00;1.00;;;;;;4960900;28;20254;-74
2020/12/17 04:51:38;;;;;;;31.60;22.15;;;3.90;1.00;;;;;;4982197;28;21189;-76
2020/12/17 04:54:07;;;;;;;35.60;22.80;;;3.90;1.00;;;;;;4960841;28;20246;-76
2020/12/17 04:56:41;;;;;;;31.75;21.95;;;3.90;1.00;;;;;;4979024;28;20240;-75
2020/12/17 04:59:09;;;;;;;34.38;24.10;;;3.90;1.00;;;;;;4952931;28;20311;-75
2020/12/17 05:01:42;;;;;;;31.90;25.27;;;3.80;1.00;;;;;;4979327;28;20232;-75
2020/12/17 05:04:10;;;;;;;33.25;21.95;;;3.80;1.00;;;;;;4959944;28;20278;-75
2020/12/17 05:06:38;;;;;;;35.17;23.58;;;3.80;1.00;;;;;;4979840;28;20228;-74
2020/12/17 05:09:05;;;;;;;33.50;24.25;;;3.80;1.00;;;;;;4964985;28;20223;-74
2020/12/17 05:11:32;;;;;;;36.95;23.13;;;4.00;1.00;;;;;;4981590;28;21116;-74
2020/12/17 05:14:00;;;;;;;31.85;24.55;;;4.00;1.00;;;;;;4960739;28;20249;-75
2020/12/17 05:16:27;;;;;;;32.75;21.17;;;3.90;1.00;;;;;;4978004;28;20290;-75
2020/12/17 05:18:53;;;;;;;143.48;97.40;;;3.90;1.00;;;;;;4966828;28;20795;-75
2020/12/17 05:21:19;;;;;;;32.42;24.48;;;3.80;1.00;;;;;;4982578;28;20265;-75
2020/12/17 05:23:48;;;;;;;29.65;21.55;;;3.80;1.00;;;;;;4981380;28;20231;-74
2020/12/17 05:26:14;;;;;;;34.80;23.95;;;3.80;1.00;;;;;;4957071;28;20258;-74
2020/12/17 05:28:41;;;;;;;35.15;23.38;;;3.70;1.00;;;;;;4981380;28;20881;-74
2020/12/17 05:31:19;;;;;;;31.38;21.45;;;3.70;1.00;;;;;;4965341;28;20972;-74
2020/12/17 05:33:45;;;;;;;34.53;21.83;;;3.70;1.00;;;;;;4983078;28;20227;-74
2020/12/17 05:36:11;;;;;;;31.90;21.80;;;3.60;1.00;;;;;;4978657;28;20238;-74
2020/12/17 05:38:38;;;;;;;38.03;24.27;;;3.60;1.00;;;;;;4990576;28;20701;-74
2020/12/17 05:41:06;;;;;;;30.30;22.85;;;3.50;1.00;;;;;;4969836;28;20274;-75
2020/12/17 05:43:33;;;;;;;33.28;21.50;;;3.50;1.00;;;;;;4984424;28;20238;-76
2020/12/17 05:45:59;;;;;;;33.30;22.15;;;3.50;1.00;;;;;;4973978;28;20239;-74
2020/12/17 05:48:26;;;;;;;28.17;20.52;;;3.50;1.00;;;;;;4982121;28;20255;-75
2020/12/17 05:50:55;;;;;;;35.03;23.98;;;3.50;1.00;;;;;;4968965;28;20263;-75
2020/12/17 05:53:23;;;;;;;30.58;21.65;;;3.50;1.00;;;;;;4977340;28;20334;-76
2020/12/17 05:55:52;;;;;;;33.33;23.05;;;3.40;1.00;;;;;;4972782;28;20772;-75
2020/12/17 05:58:18;;;;;;;34.13;23.02;;;3.40;1.00;;;;;;4982182;28;21024;-74
2020/12/17 06:00:48;;;;;;;32.00;21.80;;;3.40;1.00;;;;;;4979557;28;20372;-76
2020/12/17 06:03:27;;;;;;;34.80;21.60;;;3.40;1.00;;;;;;4975155;28;20235;-75
2020/12/17 06:06:00;;;;;;;34.45;23.90;;;3.30;1.00;;;;;;4977834;28;20865;-75
2020/12/17 06:08:33;;;;;;;33.15;22.33;;;3.30;1.00;;;;;;4969077;28;20230;-75
2020/12/17 06:11:03;;;;;;;43.60;22.80;;;3.30;1.00;;;;;;4981244;28;20283;-75
2020/12/17 06:13:34;;;;;;;35.38;22.45;;;3.30;1.00;;;;;;4968491;28;20303;-74
2020/12/17 06:16:03;;;;;;;32.35;22.60;;;3.30;1.00;;;;;;4980693;28;20223;-75
2020/12/17 06:18:37;;;;;;;30.20;22.13;;;3.20;1.00;;;;;;4974109;28;20231;-75
2020/12/17 06:21:05;;;;;;;36.47;24.55;;;3.20;1.00;;;;;;4980451;28;20243;-75
2020/12/17 06:23:33;;;;;;;34.65;23.38;;;3.20;1.00;;;;;;4972593;28;20223;-75
2020/12/17 06:26:00;;;;;;;36.30;22.10;;;3.20;1.00;;;;;;4982240;28;20766;-75
2020/12/17 06:28:39;;;;;;;35.70;21.60;;;3.20;1.00;;;;;;4964694;28;20318;-75
2020/12/17 06:31:06;;;;;;;34.78;24.30;;;3.20;1.00;;;;;;4976492;28;20228;-76
2020/12/17 06:33:37;;;;;;;34.05;21.15;;;3.20;1.00;;;;;;4971493;28;20230;-76
2020/12/17 06:36:10;;;;;;;33.75;22.73;;;3.10;1.00;;;;;;4978762;28;20239;-76
2020/12/17 06:38:39;;;;;;;35.38;25.58;;;3.10;1.00;;;;;;4972129;28;20319;-75
2020/12/17 06:41:17;;;;;;;31.92;22.15;;;3.10;1.00;;;;;;4981046;28;20220;-74
2020/12/17 06:43:43;;;;;;;33.20;23.13;;;3.10;1.00;;;;;;4969361;28;20638;-76
2020/12/17 06:46:33;;;;;;;33.50;23.65;;;3.00;1.00;;;;;;4985540;28;20318;-75
2020/12/17 06:49:03;;;;;;;35.28;25.23;;;3.00;1.00;;;;;;4969537;28;20470;-77
2020/12/17 06:51:35;;;;;;;34.17;22.98;;;3.00;1.00;;;;;;4980669;28;20797;-76
2020/12/17 06:54:04;;;;;;;36.08;23.20;;;3.10;1.00;;;;;;4968011;28;20224;-75
2020/12/17 06:56:30;;;;;;;36.40;26.00;;;3.00;1.00;;;;;;4998129;28;20335;-75
2020/12/17 06:59:18;;;;;;;35.65;23.77;;;3.00;1.00;;;;;;4998357;28;20276;-76
2020/12/17 07:01:45;;;;;;;34.85;23.10;;;3.00;1.00;;;;;;5004743;28;20258;-75
2020/12/17 07:04:12;;;;;;;38.92;26.13;;;3.00;1.00;;;;;;4987872;28;20310;-76
2020/12/17 07:06:39;;;;;;;39.20;24.48;;;3.00;1.00;;;;;;5006065;28;20316;-75
2020/12/17 07:09:05;;;;;;;33.28;23.65;;;3.10;1.00;;;;;;4996282;28;20232;-76
2020/12/17 07:11:43;;;;;;;39.40;24.42;;;3.00;1.00;;;;;;4990815;28;20235;-76
2020/12/17 07:14:11;;;;;;;37.78;24.40;;;3.00;1.00;;;;;;4987120;28;20227;-76
2020/12/17 07:16:38;;;;;;;36.95;23.58;;;3.00;1.00;;;;;;4968872;28;20252;-76
2020/12/17 07:19:22;;;;;;;36.80;23.95;;;3.00;1.00;;;;;;4987604;28;20220;-75
2020/12/17 07:21:55;;;;;;;38.15;24.30;;;3.00;1.00;;;;;;4990279;28;21483;-76
2020/12/17 07:24:24;;;;;;;35.90;22.48;;;3.00;1.00;;;;;;4978716;28;20235;-75
2020/12/17 07:27:11;;;;;;;37.42;24.33;;;3.00;1.00;;;;;;4968082;28;20315;-76
2020/12/17 07:29:50;;;;;;;35.20;23.58;;;3.10;1.00;;;;;;4996309;28;20327;-74
2020/12/17 07:32:37;;;;;;;35.70;24.48;;;3.10;1.00;;;;;;4967866;28;20223;-75
2020/12/17 07:35:19;;;;;;;37.45;24.30;;;3.20;1.00;;;;;;4974199;28;20239;-75
2020/12/17 07:37:46;;;;;;;37.78;23.80;;;3.20;1.00;;;;;;4979629;28;20240;-76
2020/12/17 07:40:19;;;;;;;36.75;24.40;;;3.30;1.00;;;;;;4984261;28;20234;-75
2020/12/17 07:42:59;;;;;;;38.35;25.30;;;3.40;1.00;;;;;;4964535;28;20318;-75
2020/12/17 07:45:50;;;;;;;39.35;23.45;;;3.50;1.00;;;;;;4981201;28;20643;-76
2020/12/17 07:48:34;;;;;;;30.30;23.77;;;3.60;1.00;;;;;;4980503;28;20242;-75
2020/12/17 07:51:01;;;;;;;35.83;22.90;;;3.80;1.00;;;;;;4977151;28;20283;-77
2020/12/17 07:53:28;;;;;;;33.30;22.65;;;3.90;1.00;;;;;;4982237;28;20262;-75
2020/12/17 07:55:55;;;;;;;37.67;23.58;;;4.00;1.00;;;;;;4977861;28;20234;-76
2020/12/17 07:58:21;;;;;;;33.10;21.55;;;4.10;1.00;;;;;;4966982;28;20230;-74
2020/12/17 08:00:48;;;;;;;32.75;21.95;;;4.20;1.00;;;;;;4983812;28;20659;-76
2020/12/17 08:03:18;;;;;;;33.20;22.52;;;4.30;1.00;;;;;;4969395;28;20230;-74
2020/12/17 08:05:44;;;;;;;30.25;21.77;;;4.30;1.00;;;;;;4977412;28;20295;-75
2020/12/17 08:08:14;;;;;;;29.27;21.58;;;4.30;1.00;;;;;;4980667;28;21740;-75
2020/12/17 08:10:41;;;;;;;28.10;19.52;;;4.30;1.00;;;;;;4982070;28;20242;-75
2020/12/17 08:13:07;;;;;;;31.30;22.00;;;4.40;1.00;;;;;;4977520;28;20330;-77
2020/12/17 08:15:34;;;;;;;28.33;21.33;;;4.50;1.00;;;;;;4978238;28;20220;-76
2020/12/17 08:18:02;;;;;;;31.27;21.95;;;4.80;1.00;;;;;;4974860;28;20219;-75
2020/12/17 08:20:29;;;;;;;28.60;20.45;;;5.10;1.00;;;;;;4977661;28;20227;-74
2020/12/17 08:22:56;;;;;;;27.23;20.75;;;5.20;1.00;;;;;;4981835;28;20232;-75
2020/12/17 08:25:23;;;;;;;32.55;21.60;;;5.50;1.00;;;;;;4984619;28;20331;-75
2020/12/17 08:27:51;;;;;;;25.35;19.05;;;5.60;1.00;;;;;;4981466;28;20232;-75
2020/12/17 08:30:18;;;;;;;27.92;19.10;;;5.60;1.00;;;;;;4983836;28;21565;-76
2020/12/17 08:32:53;;;;;;;31.02;21.50;;;5.60;1.00;;;;;;4977471;28;20227;-75
2020/12/17 08:35:22;;;;;;;28.60;19.27;;;5.50;1.00;;;;;;4987101;28;20223;-75
2020/12/17 08:37:52;;;;;;;28.67;20.40;;;5.40;1.00;;;;;;4984768;28;20461;-76
2020/12/17 08:40:24;;;;;;;27.50;20.30;;;5.20;1.00;;;;;;4983258;28;20239;-76
2020/12/17 08:42:55;;;;;;;31.90;21.00;;;5.10;1.00;;;;;;4980246;28;20231;-76
2020/12/17 08:45:24;;;;;;;28.75;19.75;;;5.00;1.00;;;;;;4982236;28;20223;-75
2020/12/17 08:47:51;;;;;;;24.50;19.00;;;4.90;1.00;;;;;;4980023;28;20701;-75
2020/12/17 08:50:19;;;;;;;29.02;21.38;;;4.90;1.00;;;;;;4985078;28;20374;-76
2020/12/17 08:52:49;;;;;;;27.85;19.83;;;5.00;1.00;;;;;;4982890;28;20231;-76
2020/12/17 08:55:15;;;;;;;28.40;21.45;;;4.90;1.00;;;;;;4982490;28;20224;-75
2020/12/17 08:57:42;;;;;;;27.88;19.67;;;4.90;1.00;;;;;;4986592;28;20228;-75
2020/12/17 09:00:16;;;;;;;28.05;19.85;;;4.90;1.00;;;;;;4983961;28;20247;-75
2020/12/17 09:02:42;;;;;;;27.90;19.35;;;4.90;1.00;;;;;;4985841;28;20232;-76
2020/12/17 09:05:16;;;;;;;28.48;19.73;;;4.90;1.00;;;;;;5000372;28;20231;-76
2020/12/17 09:07:46;;;;;;;26.02;19.90;;;5.00;1.00;;;;;;4985744;28;20357;-75
2020/12/17 09:10:14;;;;;;;29.13;20.20;;;5.00;1.00;;;;;;4986330;28;20251;-76
2020/12/17 09:12:42;;;;;;;27.35;19.10;;;5.00;1.00;;;;;;4946775;28;20227;-76
2020/12/17 09:15:10;;;;;;;26.90;19.13;;;5.10;1.00;;;;;;4952489;28;20232;-74
2020/12/17 09:17:37;;;;;;;26.95;18.90;;;5.20;1.00;;;;;;4984217;28;20232;-73
2020/12/17 09:20:15;;;;;;;29.50;20.75;;;5.30;1.00;;;;;;4971029;28;20250;-76
2020/12/17 09:22:43;;;;;;;25.05;19.77;;;5.30;1.00;;;;;;4978053;28;20289;-75
2020/12/17 09:25:09;;;;;;;30.40;19.10;;;5.30;1.00;;;;;;4967688;28;20315;-74
2020/12/17 09:27:37;;;;;;;25.05;18.38;;;5.40;1.00;;;;;;4978773;28;20360;-76
2020/12/17 09:30:07;;;;;;;26.70;20.55;;;5.40;1.00;;;;;;4972777;28;20220;-73
2020/12/17 09:32:35;;;;;;;24.63;18.10;;;5.50;1.00;;;;;;4986047;28;20223;-75
2020/12/17 09:35:09;;;;;;;24.17;19.48;;;5.50;1.00;;;;;;4982260;28;20235;-76
2020/12/17 09:37:36;;;;;;;26.95;20.52;;;5.50;1.00;;;;;;4987011;28;20227;-76
2020/12/17 09:40:05;;;;;;;26.48;19.33;;;5.60;1.00;;;;;;4973007;28;20254;-78
2020/12/17 09:42:31;;;;;;;29.30;20.08;;;5.60;1.00;;;;;;4984503;28;20409;-77
2020/12/17 09:44:58;;;;;;;22.52;18.60;;;5.70;1.00;;;;;;4979680;28;20224;-77
2020/12/17 09:47:33;;;;;;;26.50;19.13;;;5.80;1.00;;;;;;4985927;28;20272;-77
2020/12/17 09:50:10;;;;;;;28.30;19.25;;;5.90;1.00;;;;;;4978929;28;20236;-79
2020/12/17 09:52:36;;;;;;;25.40;18.80;;;6.00;1.00;;;;;;4984797;28;20228;-75
2020/12/17 09:55:04;;;;;;;27.65;18.88;;;6.00;1.00;;;;;;4985353;28;20227;-78
2020/12/17 09:57:40;;;;;;;25.90;18.65;;;5.90;1.00;;;;;;4978819;28;20270;-75
2020/12/17 10:00:08;;;;;;;25.98;19.15;;;6.00;1.00;;;;;;4981913;28;20243;-75
2020/12/17 10:02:36;;;;;;;28.70;18.67;;;6.10;1.00;;;;;;4972896;28;20750;-76
2020/12/17 10:05:03;;;;;;;26.10;19.77;;;6.10;1.00;;;;;;4982743;28;20231;-76
2020/12/17 10:07:30;;;;;;;27.35;19.90;;;6.20;1.00;;;;;;4969870;28;20713;-75
2020/12/17 10:09:56;;;;;;;25.15;18.98;;;6.10;1.00;;;;;;4982708;28;20242;-75
2020/12/17 10:12:22;;;;;;;25.50;18.45;;;6.20;1.00;;;;;;4971857;28;20231;-76
2020/12/17 10:14:48;;;;;;;25.98;18.05;;;6.10;1.00;;;;;;4988742;28;20602;-76
2020/12/17 10:17:15;;;;;;;27.90;20.58;;;6.20;1.00;;;;;;4972833;28;20417;-75
2020/12/17 10:19:42;;;;;;;26.98;19.70;;;6.20;1.00;;;;;;4990517;28;20231;-75
2020/12/17 10:22:08;;;;;;;22.42;17.67;;;6.40;1.00;;;;;;4970503;28;20228;-75
2020/12/17 10:24:34;;;;;;;24.27;18.98;;;6.50;1.00;;;;;;4986592;28;20698;-76
2020/12/17 10:27:02;;;;;;;28.25;20.02;;;6.70;1.00;;;;;;4969799;28;20259;-75
2020/12/17 10:29:28;;;;;;;24.35;19.00;;;6.70;1.00;;;;;;4986897;28;20231;-77
2020/12/17 10:31:55;;;;;;;27.35;18.83;;;6.70;1.00;;;;;;4965035;28;22095;-77
2020/12/17 10:34:22;;;;;;;29.42;18.83;;;6.80;1.00;;;;;;4994623;28;20279;-76
2020/12/17 10:36:50;;;;;;;26.58;18.17;;;6.90;1.00;;;;;;4984806;28;21042;-77
2020/12/17 10:39:16;;;;;;;26.80;18.65;;;7.00;1.00;;;;;;5000312;28;20228;-74
2020/12/17 10:41:43;;;;;;;26.55;17.52;;;7.30;1.00;;;;;;4998094;28;20271;-75
2020/12/17 10:44:10;;;;;;;26.38;19.27;;;7.50;1.00;;;;;;4982742;28;20290;-76
2020/12/17 10:46:38;;;;;;;24.23;18.05;;;7.70;1.00;;;;;;4993785;28;20228;-74
2020/12/17 10:49:05;;;;;;;20.52;16.85;;;8.00;1.00;;;;;;4983837;28;20232;-76
2020/12/17 10:51:31;;;;;;;23.90;19.77;;;8.10;1.00;;;;;;4997198;28;20418;-76
2020/12/17 10:53:59;;;;;;;25.70;18.70;;;8.30;1.00;;;;;;4984142;28;20302;-77
2020/12/17 10:56:25;;;;;;;22.50;17.88;;;8.50;1.00;;;;;;4997591;28;20232;-74
2020/12/17 10:58:52;;;;;;;20.45;15.48;;;8.50;1.00;;;;;;4974368;28;20334;-75
2020/12/17 11:01:22;;;;;;;25.83;17.20;;;8.50;1.00;;;;;;4987769;28;20223;-75
2020/12/17 11:03:49;;;;;;;25.08;17.75;;;8.80;1.00;;;;;;4970689;28;20324;-76
2020/12/17 11:06:16;;;;;;;23.23;16.98;;;9.10;1.00;;;;;;4988105;28;20230;-74
2020/12/17 11:08:42;;;;;;;22.10;19.33;;;9.20;1.00;;;;;;4974150;28;20502;-78
2020/12/17 11:11:10;;;;;;;23.33;19.17;;;9.30;1.00;;;;;;4982961;28;20516;-76
2020/12/17 11:13:36;;;;;;;27.95;18.40;;;9.40;1.00;;;;;;4972841;28;20317;-77
2020/12/17 11:16:03;;;;;;;29.27;17.52;;;9.20;1.00;;;;;;4991241;28;20227;-75
2020/12/17 11:18:30;;;;;;;21.38;17.00;;;8.80;1.00;;;;;;4974130;28;20772;-76
2020/12/17 11:20:56;;;;;;;23.42;19.35;;;8.50;1.00;;;;;;4979249;28;20423;-77
2020/12/17 11:23:22;;;;;;;25.80;18.70;;;8.30;1.00;;;;;;4979436;28;20263;-75
2020/12/17 11:25:48;;;;;;;23.92;18.30;;;8.30;1.00;;;;;;4968825;28;21735;-76
2020/12/17 11:28:18;;;;;;;23.95;17.45;;;8.90;1.00;;;;;;4982626;28;20364;-75
2020/12/17 11:30:44;;;;;;;23.38;18.25;;;8.90;1.00;;;;;;4968468;28;20725;-76
2020/12/17 11:33:11;;;;;;;20.58;16.15;;;8.60;1.00;;;;;;4985170;28;20223;-74
2020/12/17 11:35:37;;;;;;;23.88;17.52;;;8.30;1.00;;;;;;4967523;28;20326;-74
2020/12/17 11:40:42;;;;;;;23.90;17.15;;;8.20;1.00;;;;;;4957153;28;20228;-76
2020/12/17 11:43:12;;;;;;;23.70;17.25;;;8.00;1.00;;;;;;4977506;28;20617;-75
2020/12/17 11:45:39;;;;;;;22.63;18.00;;;7.90;1.00;;;;;;4965950;28;20227;-76
2020/12/17 11:48:08;;;;;;;24.55;18.65;;;7.90;1.00;;;;;;4967441;28;20224;-76
2020/12/17 11:50:35;;;;;;;22.50;17.05;;;8.00;1.00;;;;;;4936345;28;20330;-76
2020/12/17 11:53:04;;;;;;;25.88;17.65;;;8.20;1.00;;;;;;4950543;28;20235;-78
2020/12/17 11:55:31;;;;;;;24.83;18.67;;;8.60;1.00;;;;;;4932559;28;21456;-76
2020/12/17 11:58:01;;;;;;;26.77;19.35;;;8.80;1.00;;;;;;4947805;28;20240;-76
2020/12/17 12:00:27;;;;;;;23.45;17.02;;;9.20;1.00;;;;;;4933022;28;20217;-77
2020/12/17 12:02:57;;;;;;;21.13;16.98;;;9.80;1.00;;;;;;4952041;28;20228;-77
2020/12/17 12:05:23;;;;;;;23.73;16.08;;;10.00;1.00;;;;;;4936877;28;20336;-75
2020/12/17 12:07:50;;;;;;;23.17;17.33;;;10.00;1.00;;;;;;4949938;28;20224;-78
2020/12/17 12:10:16;;;;;;;23.95;17.58;;;10.20;1.00;;;;;;4941060;28;20241;-75
2020/12/17 12:12:43;;;;;;;22.08;17.25;;;10.60;1.00;;;;;;4935491;28;20288;-77
2020/12/17 12:15:12;;;;;;;21.63;17.10;;;11.00;1.00;;;;;;4938864;28;20233;-75
2020/12/17 12:17:39;;;;;;;25.73;17.92;;;11.00;1.00;;;;;;4930976;28;20282;-77
2020/12/17 12:20:09;;;;;;;20.40;16.10;;;11.40;1.00;;;;;;4945206;28;20232;-76
2020/12/17 12:22:36;;;;;;;20.90;16.35;;;11.60;1.00;;;;;;4916127;28;20282;-77
2020/12/17 12:25:03;;;;;;;20.17;15.60;;;11.70;1.00;;;;;;4936567;28;20271;-77
2020/12/17 12:27:29;;;;;;;21.02;16.77;;;11.70;1.00;;;;;;4923442;28;20467;-78
2020/12/17 12:29:55;;;;;;;19.10;15.40;;;11.80;1.00;;;;;;4945921;28;20283;-76
2020/12/17 12:32:21;;;;;;;19.80;15.83;;;12.10;1.00;;;;;;4925548;28;20484;-74
2020/12/17 12:34:55;;;;;;;17.60;14.60;;;12.20;1.00;;;;;;4944436;28;20505;-76
2020/12/17 12:37:22;;;;;;;18.58;14.55;;;12.20;1.00;;;;;;4926125;28;20457;-77
2020/12/17 12:39:49;;;;;;;19.50;14.80;;;11.60;1.00;;;;;;4948975;28;20326;-76
2020/12/17 12:42:15;;;;;;;16.30;14.52;;;11.10;1.00;;;;;;4928647;28;20282;-77
2020/12/17 12:44:41;;;;;;;19.30;15.32;;;10.70;1.00;;;;;;4948475;28;20229;-76
2020/12/17 12:47:07;;;;;;;19.70;15.77;;;10.40;1.00;;;;;;4937034;28;20221;-75
2020/12/17 12:49:33;;;;;;;22.10;15.88;;;10.00;1.00;;;;;;4946958;28;20229;-75
2020/12/17 12:51:59;;;;;;;17.77;14.55;;;10.20;1.00;;;;;;4927620;28;20261;-75